createdAt,value
2018-11-20T00:01:52.924Z,16.00
2018-11-20T00:04:54.897Z,17.75
2018-11-20T00:07:56.766Z,16.25
2018-11-20T00:11:01.792Z,15.98
2018-11-20T00:14:00.720Z,16.15
2018-11-20T00:16:52.123Z,19.73
2018-11-20T00:19:32.824Z,19.62
2018-11-20T00:22:11.634Z,18.27
2018-11-20T00:24:54.952Z,12.82
2018-11-20T00:27:59.800Z,17.85
2018-11-20T00:31:01.613Z,14.50
2018-11-20T00:33:57.698Z,14.47
2018-11-20T00:36:43.306Z,16.97
2018-11-20T00:39:45.471Z,14.55
2018-11-20T00:42:21.792Z,15.85
2018-11-20T00:45:07.180Z,17.60
2018-11-20T00:47:54.147Z,17.95
2018-11-20T00:50:53.360Z,21.02
2018-11-20T00:53:38.741Z,18.98
2018-11-20T00:56:42.479Z,17.42
2018-11-20T00:59:22.763Z,20.05
2018-11-20T01:01:59.529Z,21.70
2018-11-20T01:04:57.726Z,17.48
2018-11-20T01:07:43.397Z,17.40
2018-11-20T01:10:21.905Z,17.98
2018-11-20T01:13:14.517Z,15.93
2018-11-20T01:16:04.575Z,16.52
2018-11-20T01:18:48.748Z,18.25
2018-11-20T01:21:38.371Z,18.90
2018-11-20T01:24:25.356Z,22.50
2018-11-20T01:27:08.594Z,23.50
2018-11-20T01:30:13.497Z,19.45
2018-11-20T01:33:03.140Z,18.00
2018-11-20T01:35:48.532Z,15.58
2018-11-20T01:38:47.536Z,17.17
2018-11-20T01:41:32.409Z,18.62
2018-11-20T01:44:28.547Z,18.17
2018-11-20T01:47:21.763Z,16.77
2018-11-20T01:50:14.426Z,20.82
2018-11-20T01:52:59.865Z,17.77
2018-11-20T01:55:38.452Z,18.10
2018-11-20T01:58:25.382Z,21.33
2018-11-20T02:01:10.775Z,15.80
2018-11-20T02:03:56.431Z,21.37
2018-11-20T02:06:41.845Z,19.35
2018-11-20T02:09:40.907Z,17.98
2018-11-20T02:12:43.045Z,21.25
2018-11-20T02:15:28.545Z,21.57
2018-11-20T02:18:35.943Z,21.23
2018-11-20T02:21:20.089Z,22.05
2018-11-20T02:24:08.415Z,22.45
2018-11-20T02:27:10.613Z,21.80
2018-11-20T02:29:56.360Z,21.82
2018-11-20T02:32:46.185Z,22.98
2018-11-20T02:35:35.750Z,22.87
2018-11-20T02:38:30.252Z,23.60
2018-11-20T02:41:11.712Z,21.97
2018-11-20T02:43:55.891Z,22.70
2018-11-20T02:46:39.100Z,23.20
2018-11-20T02:49:30.358Z,21.15
2018-11-20T02:52:16.018Z,24.40
2018-11-20T02:55:11.962Z,23.10
2018-11-20T02:57:57.320Z,24.45
2018-11-20T03:00:53.196Z,22.98
2018-11-20T03:03:38.688Z,22.77
2018-11-20T03:06:21.165Z,24.10
2018-11-20T03:08:57.167Z,21.23
2018-11-20T03:11:46.967Z,27.50
2018-11-20T03:14:36.578Z,23.20
2018-11-20T03:17:15.796Z,25.80
2018-11-20T03:19:57.917Z,22.35
2018-11-20T03:22:53.729Z,23.90
2018-11-20T03:25:57.965Z,26.95
2018-11-20T03:28:57.777Z,20.60
2018-11-20T03:31:43.187Z,22.73
2018-11-20T03:34:45.316Z,25.92
2018-11-20T03:37:38.623Z,22.95
2018-11-20T03:40:18.901Z,25.52
2018-11-20T03:43:12.024Z,26.90
2018-11-20T03:45:57.734Z,24.70
2018-11-20T03:48:50.545Z,25.57
2018-11-20T03:51:37.484Z,25.25
2018-11-20T03:54:18.658Z,27.07
2018-11-20T03:57:04.032Z,26.93
2018-11-20T03:59:49.717Z,27.25
2018-11-20T04:02:36.099Z,28.87
2018-11-20T04:05:23.182Z,25.75
2018-11-20T04:08:08.815Z,23.62
2018-11-20T04:15:45.854Z,26.82
2018-11-20T04:18:27.546Z,26.33
2018-11-20T04:21:14.065Z,24.27
2018-11-20T04:23:59.180Z,26.02
2018-11-20T04:26:39.143Z,24.72
2018-11-20T04:29:14.590Z,22.15
2018-11-20T04:32:12.597Z,23.25
2018-11-20T04:34:51.112Z,23.00
2018-11-20T04:37:37.682Z,22.32
2018-11-20T04:40:37.142Z,24.25
2018-11-20T04:43:38.707Z,22.07
2018-11-20T04:46:31.442Z,22.17
2018-11-20T04:49:16.637Z,20.40
2018-11-20T04:52:01.492Z,24.63
2018-11-20T04:55:03.124Z,22.02
2018-11-20T04:57:48.539Z,26.93
2018-11-20T05:00:28.487Z,23.40
2018-11-20T05:03:12.896Z,24.37
2018-11-20T05:05:58.108Z,21.80
2018-11-20T05:08:39.385Z,24.43
2018-11-20T05:11:34.763Z,28.75
2018-11-20T05:14:24.264Z,24.85
2018-11-20T05:17:19.841Z,26.00
2018-11-20T05:20:21.071Z,26.97
2018-11-20T05:23:14.510Z,25.75
2018-11-20T05:26:04.896Z,26.80
2018-11-20T05:28:49.973Z,25.25
2018-11-20T05:31:26.851Z,19.75
2018-11-20T05:34:19.067Z,19.42
2018-11-20T05:37:05.624Z,26.80
2018-11-20T05:39:50.533Z,23.75
2018-11-20T05:42:37.042Z,22.58
2018-11-20T05:45:22.431Z,25.35
2018-11-20T05:48:07.491Z,28.92
2018-11-20T05:51:12.165Z,29.25
2018-11-20T05:53:58.662Z,28.30
2018-11-20T05:56:45.676Z,25.68
2018-11-20T05:59:29.327Z,24.82
2018-11-20T06:02:14.706Z,27.15
2018-11-20T06:05:16.119Z,28.35
2018-11-20T06:07:57.786Z,26.55
2018-11-20T06:10:44.290Z,30.72
2018-11-20T06:13:35.285Z,30.00
2018-11-20T06:16:31.877Z,30.48
2018-11-20T06:19:27.444Z,34.58
2018-11-20T06:22:07.661Z,30.95
2018-11-20T06:24:53.058Z,27.25
2018-11-20T06:27:38.207Z,32.33
2018-11-20T06:30:40.813Z,25.20
2018-11-20T06:33:25.911Z,29.20
2018-11-20T06:36:10.991Z,31.37
2018-11-20T06:38:52.327Z,38.30
2018-11-20T06:41:48.114Z,31.77
2018-11-20T06:44:49.893Z,33.30
2018-11-20T06:47:35.875Z,31.77
2018-11-20T06:50:20.976Z,35.90
2018-11-20T06:53:05.097Z,33.92
2018-11-20T06:55:55.524Z,34.08
2018-11-20T06:58:40.463Z,29.07
2018-11-20T07:01:29.696Z,35.43
2018-11-20T07:04:25.084Z,30.17
2018-11-20T07:07:17.604Z,31.02
2018-11-20T07:10:03.743Z,33.02
2018-11-20T07:12:48.591Z,31.42
2018-11-20T07:15:28.881Z,32.65
2018-11-20T07:18:03.161Z,32.25
2018-11-20T07:20:52.453Z,28.42
2018-11-20T07:23:48.002Z,29.57
2018-11-20T07:26:33.661Z,34.70
2018-11-20T07:29:18.681Z,34.63
2018-11-20T07:32:00.978Z,31.95
2018-11-20T07:34:50.284Z,33.60
2018-11-20T07:37:39.467Z,37.08
2018-11-20T07:40:23.299Z,34.98
2018-11-20T07:43:00.729Z,33.15
2018-11-20T07:45:46.113Z,27.07
2018-11-20T07:48:38.449Z,34.98
2018-11-20T07:51:23.518Z,31.75
2018-11-20T07:54:08.549Z,33.55
2018-11-20T07:56:55.119Z,29.57
2018-11-20T07:59:40.148Z,31.48
2018-11-20T08:02:27.722Z,27.77
2018-11-20T08:05:23.171Z,26.93
2018-11-20T08:08:15.449Z,30.10
2018-11-20T08:11:00.929Z,28.62
2018-11-20T08:13:46.081Z,30.50
2018-11-20T08:16:41.478Z,30.40
2018-11-20T08:19:40.005Z,29.12
2018-11-20T08:22:38.545Z,28.87
2018-11-20T08:25:35.067Z,31.07
2018-11-20T08:28:20.101Z,32.10
2018-11-20T08:31:12.625Z,28.98
2018-11-20T08:33:51.446Z,31.23
2018-11-20T08:36:36.536Z,29.72
2018-11-20T08:39:18.832Z,33.35
2018-11-20T08:41:58.349Z,29.70
2018-11-20T08:44:43.255Z,31.35
2018-11-20T08:47:44.939Z,28.95
2018-11-20T08:50:43.716Z,28.38
2018-11-20T08:53:30.518Z,27.00
2018-11-20T08:56:29.195Z,29.02
2018-11-20T08:59:04.866Z,24.95
2018-11-20T09:01:51.387Z,28.80
2018-11-20T09:04:37.947Z,30.08
2018-11-20T09:07:24.585Z,26.02
2018-11-20T09:10:11.134Z,30.92
2018-11-20T09:12:57.904Z,26.57
2018-11-20T09:15:44.714Z,24.72
2018-11-20T09:18:31.320Z,25.68
2018-11-20T09:21:17.983Z,24.85
2018-11-20T09:24:04.412Z,25.30
2018-11-20T09:26:50.932Z,26.45
2018-11-20T09:29:37.496Z,25.85
2018-11-20T09:32:24.021Z,22.10
2018-11-20T09:34:59.130Z,24.23
2018-11-20T09:37:45.678Z,20.40
2018-11-20T09:40:51.887Z,25.45
2018-11-20T09:43:38.796Z,23.98
2018-11-20T09:46:26.194Z,25.65
2018-11-20T09:49:12.996Z,22.85
2018-11-20T09:51:59.817Z,25.97
2018-11-20T09:54:46.642Z,22.35
2018-11-20T09:57:33.224Z,21.12
2018-11-20T10:00:19.756Z,25.08
2018-11-20T10:03:05.479Z,23.73
2018-11-20T10:05:52.426Z,23.90
2018-11-20T10:11:40.233Z,23.52
2018-11-20T10:14:28.422Z,22.67
2018-11-20T10:17:15.945Z,25.97
2018-11-20T10:20:07.827Z,23.18
2018-11-20T10:25:41.102Z,21.30
2018-11-20T10:28:40.196Z,18.37
2018-11-20T10:31:30.156Z,24.27
2018-11-20T10:34:16.979Z,23.07
2018-11-20T10:39:57.867Z,22.00
2018-11-20T10:42:36.997Z,25.23
2018-11-20T10:45:24.008Z,24.15
2018-11-20T10:48:12.290Z,19.92
2018-11-20T10:50:59.560Z,20.25
2018-11-20T10:53:49.510Z,27.20
2018-11-20T10:56:37.347Z,24.52
2018-11-20T10:59:25.407Z,22.82
2018-11-20T11:02:12.206Z,24.30
2018-11-20T11:04:58.792Z,27.25
2018-11-20T11:07:45.272Z,25.60
2018-11-20T11:10:31.728Z,24.95
2018-11-20T11:13:18.282Z,21.60
2018-11-20T11:16:04.887Z,25.55
2018-11-20T11:18:51.843Z,24.77
2018-11-20T11:21:30.563Z,21.42
2018-11-20T11:24:17.126Z,18.15
2018-11-20T11:27:03.713Z,23.00
2018-11-20T11:29:50.440Z,19.80
2018-11-20T11:32:36.980Z,25.27
2018-11-20T11:35:24.394Z,24.52
2018-11-20T11:38:10.936Z,26.20
2018-11-20T11:40:57.688Z,24.00
2018-11-20T11:43:44.491Z,22.75
2018-11-20T11:46:31.072Z,21.85
2018-11-20T11:49:17.614Z,23.35
2018-11-20T11:52:04.213Z,25.12
2018-11-20T11:54:39.716Z,25.30
2018-11-20T11:57:26.507Z,25.60
2018-11-20T12:00:13.209Z,24.95
2018-11-20T12:05:57.561Z,22.55
2018-11-20T12:08:41.531Z,23.83
2018-11-20T12:11:26.781Z,23.42
2018-11-20T12:14:13.368Z,22.65
2018-11-20T12:17:00.085Z,22.13
2018-11-20T12:19:46.618Z,24.85
2018-11-20T12:22:33.858Z,24.07
2018-11-20T12:25:09.691Z,25.35
2018-11-20T12:27:56.553Z,22.95
2018-11-20T12:30:42.712Z,19.90
2018-11-20T12:33:29.264Z,22.05
2018-11-20T12:36:15.748Z,21.97
2018-11-20T12:39:02.737Z,25.02
2018-11-20T12:41:48.848Z,22.77
2018-11-20T12:44:36.654Z,24.20
2018-11-20T12:47:21.841Z,22.32
2018-11-20T12:50:08.575Z,26.02
2018-11-20T12:52:48.248Z,24.20
2018-11-20T12:55:36.115Z,27.25
2018-11-20T12:58:21.387Z,25.68
2018-11-20T13:01:07.903Z,21.52
2018-11-20T13:03:54.396Z,26.10
2018-11-20T13:06:40.902Z,25.10
2018-11-20T13:09:28.276Z,27.27
2018-11-20T13:12:14.949Z,26.40
2018-11-20T13:15:01.457Z,24.65
2018-11-20T13:17:49.195Z,26.27
2018-11-20T13:20:35.394Z,19.90
2018-11-20T13:23:25.418Z,24.43
2018-11-20T13:26:03.603Z,22.80
2018-11-20T13:28:59.312Z,24.32
2018-11-20T13:31:45.869Z,19.90
2018-11-20T13:34:37.996Z,26.82
2018-11-20T13:37:24.798Z,27.17
2018-11-20T13:40:23.383Z,22.62
2018-11-20T13:43:15.901Z,27.30
2018-11-20T13:46:01.186Z,24.80
2018-11-20T13:48:47.345Z,22.40
2018-11-20T13:51:31.928Z,23.85
2018-11-20T13:54:16.987Z,24.50
2018-11-20T13:57:10.745Z,24.52
2018-11-20T14:00:01.287Z,20.00
2018-11-20T14:02:47.515Z,24.67
2018-11-20T14:05:34.026Z,25.27
2018-11-20T14:08:23.921Z,21.00
2018-11-20T14:11:22.297Z,24.25
2018-11-20T14:14:14.443Z,23.73
2018-11-20T14:17:06.723Z,24.37
2018-11-20T14:20:04.990Z,23.87
2018-11-20T14:22:51.549Z,25.12
2018-11-20T14:25:48.224Z,25.80
2018-11-20T14:28:37.358Z,25.77
2018-11-20T14:31:39.200Z,25.40
2018-11-20T14:34:24.682Z,22.02
2018-11-20T14:37:10.135Z,25.75
2018-11-20T14:40:02.398Z,24.52
2018-11-20T14:42:44.843Z,26.33
2018-11-20T14:45:40.459Z,27.35
2018-11-20T14:48:38.854Z,22.15
2018-11-20T14:51:24.270Z,26.50
2018-11-20T14:54:09.382Z,24.95
2018-11-20T14:56:54.580Z,25.75
2018-11-20T14:59:43.810Z,27.02
2018-11-20T15:02:28.910Z,25.05
2018-11-20T15:05:14.004Z,25.62
2018-11-20T15:08:12.422Z,28.07
2018-11-20T15:11:10.792Z,23.05
2018-11-20T15:13:56.135Z,30.70
2018-11-20T15:16:42.664Z,26.60
2018-11-20T15:19:41.255Z,31.15
2018-11-20T15:22:27.829Z,35.88
2018-11-20T15:25:14.339Z,32.83
2018-11-20T15:27:59.690Z,30.30
2018-11-20T15:30:41.951Z,30.15
2018-11-20T15:33:46.564Z,31.48
2018-11-20T15:36:32.109Z,27.60
2018-11-20T15:39:20.093Z,36.30
2018-11-20T15:42:08.732Z,36.42
2018-11-20T15:44:58.102Z,32.70
2018-11-20T15:47:38.658Z,31.15
2018-11-20T15:50:26.154Z,30.08
2018-11-20T15:53:27.639Z,34.30
2018-11-20T15:56:12.893Z,32.35
2018-11-20T15:58:58.065Z,33.60
2018-11-20T16:01:56.668Z,35.73
2018-11-20T16:04:41.843Z,33.00
2018-11-20T16:07:43.315Z,36.83
2018-11-20T16:10:28.424Z,37.90
2018-11-20T16:13:02.576Z,36.10
2018-11-20T16:15:58.762Z,35.30
2018-11-20T16:18:59.693Z,33.15
2018-11-20T16:21:53.592Z,37.00
2018-11-20T16:24:40.133Z,36.77
2018-11-20T16:27:32.662Z,36.13
2018-11-20T16:30:17.833Z,39.58
2018-11-20T16:33:04.332Z,35.85
2018-11-20T16:35:40.816Z,36.85
2018-11-20T16:38:42.530Z,36.80
2018-11-20T16:41:31.573Z,39.15
2018-11-20T16:44:16.842Z,34.40
2018-11-20T16:47:03.383Z,35.83
2018-11-20T16:49:58.404Z,39.53
2018-11-20T16:53:02.109Z,41.83
2018-11-20T16:55:47.375Z,35.98
2018-11-20T16:58:32.486Z,38.17
2018-11-20T17:01:17.793Z,42.25
2018-11-20T17:04:13.418Z,40.43
2018-11-20T17:06:59.929Z,35.58
2018-11-20T17:09:46.237Z,37.83
2018-11-20T17:12:33.433Z,41.28
2018-11-20T17:15:18.501Z,32.67
2018-11-20T17:18:03.740Z,36.35
2018-11-20T17:21:00.958Z,38.08
2018-11-20T17:23:56.754Z,44.45
2018-11-20T17:26:46.547Z,36.05
2018-11-20T17:29:36.511Z,38.78
2018-11-20T17:32:23.057Z,34.95
2018-11-20T17:35:13.594Z,35.98
2018-11-20T17:38:09.238Z,34.78
2018-11-20T17:41:08.307Z,30.32
2018-11-20T17:43:54.680Z,37.20
2018-11-20T17:46:41.817Z,37.13
2018-11-20T17:49:23.009Z,40.35
2018-11-20T17:52:08.005Z,38.23
2018-11-20T17:55:11.120Z,35.50
2018-11-20T17:57:56.996Z,40.40
2018-11-20T18:00:56.261Z,41.90
2018-11-20T18:03:38.928Z,41.77
2018-11-20T18:06:24.470Z,36.23
2018-11-20T18:09:13.638Z,44.58
2018-11-20T18:12:02.077Z,38.50
2018-11-20T18:14:49.512Z,36.63
2018-11-20T18:17:35.821Z,41.15
2018-11-20T18:20:36.233Z,42.90
2018-11-20T18:23:36.830Z,39.78
2018-11-20T18:26:18.225Z,38.75
2018-11-20T18:29:05.262Z,40.17
2018-11-20T18:31:55.984Z,35.50
2018-11-20T18:34:44.254Z,30.68
2018-11-20T18:37:32.999Z,35.98
2018-11-20T18:40:21.490Z,39.80
2018-11-20T18:43:11.609Z,38.20
2018-11-20T18:46:01.845Z,37.67
2018-11-20T18:48:49.665Z,36.70
2018-11-20T18:51:44.102Z,37.08
2018-11-20T18:54:34.197Z,39.40
2018-11-20T18:57:28.308Z,40.70
2018-11-20T19:00:16.203Z,43.98
2018-11-20T19:03:13.775Z,29.42
2018-11-20T19:06:01.571Z,36.65
2018-11-20T19:08:48.263Z,37.58
2018-11-20T19:11:45.231Z,38.17
2018-11-20T19:14:45.395Z,37.50
2018-11-20T19:17:31.814Z,39.15
2018-11-20T19:20:21.304Z,31.82
2018-11-20T19:26:34.201Z,29.77
2018-11-20T19:32:28.263Z,40.80
2018-11-20T19:35:16.060Z,37.80
2018-11-20T19:38:04.700Z,40.35
2018-11-20T19:40:52.103Z,38.13
2018-11-20T19:43:38.681Z,39.50
2018-11-20T19:46:25.333Z,43.50
2018-11-20T19:49:11.943Z,35.58
2018-11-20T19:55:23.704Z,44.40
2018-11-20T19:58:10.353Z,39.27
2018-11-20T20:00:57.023Z,33.95
2018-11-20T20:03:43.872Z,43.70
2018-11-20T20:06:32.204Z,43.48
2018-11-20T20:09:38.226Z,43.73
2018-11-20T20:12:25.531Z,44.13
2018-11-20T20:15:31.841Z,45.65
2018-11-20T20:18:18.588Z,49.95
2018-11-20T20:21:06.362Z,39.53
2018-11-20T20:24:12.520Z,43.28
2018-11-20T20:26:59.829Z,45.12
2018-11-20T20:29:47.372Z,40.67
2018-11-20T20:32:34.659Z,41.88
2018-11-20T20:38:08.461Z,47.03
2018-11-20T20:40:55.398Z,36.05
2018-11-20T20:43:45.867Z,39.08
2018-11-20T20:46:33.745Z,43.28
2018-11-20T20:49:20.543Z,41.90
2018-11-20T20:52:07.243Z,42.20
2018-11-20T20:54:54.333Z,40.67
2018-11-20T20:57:41.182Z,42.30
2018-11-20T21:00:28.966Z,35.58
2018-11-20T21:03:04.798Z,43.50
2018-11-20T21:05:54.900Z,43.73
2018-11-20T21:08:45.118Z,48.28
2018-11-20T21:11:28.199Z,44.45
2018-11-20T21:14:10.605Z,43.50
2018-11-20T21:19:46.485Z,42.00
2018-11-20T21:22:33.226Z,50.65
2018-11-20T21:25:20.209Z,49.18
2018-11-20T21:28:09.176Z,50.17
2018-11-20T21:30:55.841Z,46.18
2018-11-20T21:33:42.535Z,50.48
2018-11-20T21:36:29.098Z,49.50
2018-11-20T21:39:15.635Z,49.53
2018-11-20T21:42:02.224Z,49.65
2018-11-20T21:44:39.515Z,46.90
2018-11-20T21:47:26.088Z,49.50
2018-11-20T21:50:12.598Z,48.38
2018-11-20T21:52:59.359Z,45.45
2018-11-20T21:55:46.140Z,51.90
2018-11-20T21:58:32.719Z,51.40
2018-11-20T22:01:21.091Z,52.00
2018-11-20T22:04:07.895Z,46.80
2018-11-20T22:07:13.882Z,53.55
2018-11-20T22:13:26.270Z,56.60
2018-11-20T22:16:13.678Z,55.73
2018-11-20T22:19:00.241Z,56.83
2018-11-20T22:21:46.792Z,56.80
2018-11-20T22:24:33.847Z,40.10
2018-11-20T22:27:20.363Z,54.80
2018-11-20T22:30:06.925Z,61.02
2018-11-20T22:32:53.485Z,57.23
2018-11-20T22:35:40.032Z,43.92
2018-11-20T22:38:12.757Z,52.60
2018-11-20T22:40:59.284Z,53.25
2018-11-20T22:43:45.808Z,45.33
2018-11-20T22:46:32.332Z,52.73
2018-11-20T22:49:11.721Z,51.60
2018-11-20T22:51:58.256Z,51.73
2018-11-20T22:54:44.788Z,52.03
2018-11-20T22:57:31.622Z,56.40
2018-11-20T23:00:18.187Z,51.68
2018-11-20T23:03:04.906Z,56.15
2018-11-20T23:05:50.934Z,53.28
2018-11-20T23:08:18.365Z,50.55
2018-11-20T23:10:45.826Z,53.20
2018-11-20T23:13:13.170Z,53.35
2018-11-20T23:15:40.443Z,59.85
2018-11-20T23:18:07.794Z,54.58
2018-11-20T23:20:35.070Z,53.70
2018-11-20T23:23:02.328Z,49.77
2018-11-20T23:25:29.819Z,48.85
2018-11-20T23:27:57.087Z,55.75
2018-11-20T23:30:24.437Z,54.88
2018-11-20T23:32:51.718Z,53.38
2018-11-20T23:35:19.043Z,48.13
2018-11-20T23:37:46.352Z,58.15
2018-11-20T23:40:14.239Z,54.73
2018-11-20T23:42:41.568Z,46.68
2018-11-20T23:45:10.401Z,54.38
2018-11-20T23:47:37.720Z,52.50
2018-11-20T23:50:06.064Z,53.90
2018-11-20T23:52:33.343Z,51.98
2018-11-20T23:55:00.632Z,52.67
2018-11-20T23:57:27.951Z,38.58
2018-11-20T23:59:55.314Z,51.28
